Bat Yam, Israel
Current Conditions -  °F | °C
As of 10:50 PM on Friday 19 Dec 2014 (Local Time) from LLSD Reporting Station
Few Clouds Few Clouds  
Wind Chill: 63°   Ceiling: Unl
Heat Index: 63°   Visibility: 6mi
Dew Point: 55°   Wind: 3mph
Humidity: 77%   Direction: NA
Pressure: 30.06"   Gusts: NA
Location:  32.02°N, 34.75°E
Report Text: LLSD 191950Z VRB03KT 9000 FEW025 17/13 Q1018
Loading
Personal Weather Stations






























Interactive Weather Map New forecast layout! Learn more

10-Day Weather Forecast

Advertisements
Track Severe Weather on mobile